Rosalia — D5LN8 — position and weather

sailwx.info

Track history (hours):
 
Tides and Currents Weather Stations Pressure Air Temp Water Temp Dewpoint Dewpoint Depression Visibility Wind Speed Wind Dir Waves Ship Positions

Rosalia

Last reported at 2018-Jul-12 11:05 UTC. Time now 2018-Jul-23 06:11 UTC.
Position S 32°01' E 115°42'.
Warning: this ship's position is 10 days out of date.

Length 180 m; draft 10.6 m.

Type: Ship. MMSI: 636017559.

Date/timePositionNaut miles runAvg speedWind from/ knotsBaromVisibWave heightAir tempDewpointWater temp
2018-Jul-12 11:05S 32°01' E 115°42'110.9
2018-Jul-12 11:00S 32°01' E 115°42'4 8.9
2018-Jul-12 10:30S 32°06' E 115°42'5 9.7
2018-Jul-12 10:00S 32°10' E 115°43'4 7.6
2018-Jul-12 09:30S 32°14' E 115°44'1 1.8
2018-Jul-12 08:55S 32°15' E 115°45'0 0.0
2018-Jul-12 08:22S 32°15' E 115°45'0 0.0
2018-Jul-12 07:52S 32°15' E 115°45'0 0.0
2018-Jul-12 06:25S 32°15' E 115°45'0 0.0
2018-Jul-12 05:58S 32°15' E 115°45'0 0.0
2018-Jul-12 04:04S 32°15' E 115°45'0 0.0
2018-Jul-12 03:55S 32°15' E 115°45'0 0.0
2018-Jul-11 19:43S 32°15' E 115°45'0 0.0
2018-Jul-11 19:25S 32°15' E 115°45'0 0.0
2018-Jul-11 10:19S 32°15' E 115°45'0 0.0
2018-Jul-11 09:46S 32°15' E 115°45'0 0.0
2018-Jul-11 09:28S 32°15' E 115°45'0 0.0
2018-Jul-11 08:37S 32°15' E 115°45'0 0.0
2018-Jul-11 07:34S 32°15' E 115°45'0 0.0
2018-Jul-11 07:16S 32°15' E 115°45'0 0.0
2018-Jul-11 06:49S 32°15' E 115°45'0 0.0
2018-Jul-11 06:17S 32°15' E 115°45'0 0.7
2018-Jul-11 05:59S 32°15' E 115°45'1 0.6
2018-Jul-11 04:33S 32°15' E 115°44'0 0.0
2018-Jul-11 04:27S 32°15' E 115°44'0 0.0
2018-Jul-11 03:06S 32°15' E 115°44'0 0.0
2018-Jul-10 16:51S 32°15' E 115°44'0 0.1
2018-Jul-10 16:30S 32°15' E 115°44'0 0.2
2018-Jul-10 15:57S 32°15' E 115°44'0 0.0
2018-Jul-10 15:27S 32°15' E 115°44'1 0.8
2018-Jul-10 14:06S 32°14' E 115°44'1 9.5
2018-Jul-10 14:00S 32°13' E 115°43'612.0
2018-Jul-10 13:31S 32°07' E 115°42'510.7
2018-Jul-10 13:00S 32°01' E 115°41'4 5.2
2018-Jul-10 12:13S 31°57' E 115°40'  
Track history (hours):
 
Tides and Currents Weather Stations Pressure Air Temp Water Temp Dewpoint Dewpoint Depression Visibility Wind Speed Wind Dir Waves Ship Positions

Rosalia

Last reported at 2018-Jul-12 11:05 UTC. Time now 2018-Jul-23 06:11 UTC.
Position S 32°01' E 115°42'.
Warning: this ship's position is 10 days out of date.

Length 180 m; draft 10.6 m.

Type: Ship. MMSI: 636017559.

Date/timePositionNaut miles runAvg speedWind from/ knotsBaromVisibWave heightAir tempDewpointWater temp
2018-Jul-12 11:05S 32°01' E 115°42'110.9
2018-Jul-12 11:00S 32°01' E 115°42'4 8.9
2018-Jul-12 10:30S 32°06' E 115°42'5 9.7
2018-Jul-12 10:00S 32°10' E 115°43'4 7.6
2018-Jul-12 09:30S 32°14' E 115°44'1 1.8
2018-Jul-12 08:55S 32°15' E 115°45'0 0.0
2018-Jul-12 08:22S 32°15' E 115°45'0 0.0
2018-Jul-12 07:52S 32°15' E 115°45'0 0.0
2018-Jul-12 06:25S 32°15' E 115°45'0 0.0
2018-Jul-12 05:58S 32°15' E 115°45'0 0.0
2018-Jul-12 04:04S 32°15' E 115°45'0 0.0
2018-Jul-12 03:55S 32°15' E 115°45'0 0.0
2018-Jul-11 19:43S 32°15' E 115°45'0 0.0
2018-Jul-11 19:25S 32°15' E 115°45'0 0.0
2018-Jul-11 10:19S 32°15' E 115°45'0 0.0
2018-Jul-11 09:46S 32°15' E 115°45'0 0.0
2018-Jul-11 09:28S 32°15' E 115°45'0 0.0
2018-Jul-11 08:37S 32°15' E 115°45'0 0.0
2018-Jul-11 07:34S 32°15' E 115°45'0 0.0
2018-Jul-11 07:16S 32°15' E 115°45'0 0.0
2018-Jul-11 06:49S 32°15' E 115°45'0 0.0
2018-Jul-11 06:17S 32°15' E 115°45'0 0.7
2018-Jul-11 05:59S 32°15' E 115°45'1 0.6
2018-Jul-11 04:33S 32°15' E 115°44'0 0.0
2018-Jul-11 04:27S 32°15' E 115°44'0 0.0
2018-Jul-11 03:06S 32°15' E 115°44'0 0.0
2018-Jul-10 16:51S 32°15' E 115°44'0 0.1
2018-Jul-10 16:30S 32°15' E 115°44'0 0.2
2018-Jul-10 15:57S 32°15' E 115°44'0 0.0
2018-Jul-10 15:27S 32°15' E 115°44'1 0.8
2018-Jul-10 14:06S 32°14' E 115°44'1 9.5
2018-Jul-10 14:00S 32°13' E 115°43'612.0
2018-Jul-10 13:31S 32°07' E 115°42'510.7
2018-Jul-10 13:00S 32°01' E 115°41'4 5.2
2018-Jul-10 12:13S 31°57' E 115°40'  

Dump ship's entire track history